createdAt,value
2023-03-24T00:00:01.722Z,3.78
2023-03-24T00:00:34.820Z,6.43
2023-03-24T00:01:07.454Z,5.00
2023-03-24T00:01:41.233Z,3.83
2023-03-24T00:02:13.624Z,3.65
2023-03-24T00:02:46.379Z,4.70
2023-03-24T00:03:19.425Z,3.70
2023-03-24T00:03:52.113Z,3.70
2023-03-24T00:04:25.078Z,4.00
2023-03-24T00:04:58.550Z,3.90
2023-03-24T00:05:30.984Z,4.05
2023-03-24T00:06:05.365Z,10.13
2023-03-24T00:06:38.338Z,5.70
2023-03-24T00:07:14.329Z,4.60
2023-03-24T00:07:46.944Z,6.63
2023-03-24T00:08:19.796Z,5.90
2023-03-24T00:08:53.001Z,4.25
2023-03-24T00:09:24.889Z,9.43
2023-03-24T00:09:57.865Z,4.70
2023-03-24T00:10:34.768Z,4.38
2023-03-24T00:11:11.605Z,5.90
2023-03-24T00:11:44.818Z,5.22
2023-03-24T00:12:18.612Z,5.10
2023-03-24T00:12:51.426Z,3.78
2023-03-24T00:13:24.270Z,4.50
2023-03-24T00:13:58.531Z,4.30
2023-03-24T00:14:30.742Z,5.80
2023-03-24T00:15:03.683Z,4.03
2023-03-24T00:15:36.213Z,6.50
2023-03-24T00:16:10.920Z,4.30
2023-03-24T00:16:43.846Z,3.58
2023-03-24T00:17:17.360Z,4.10
2023-03-24T00:17:50.464Z,3.95
2023-03-24T00:18:25.857Z,4.85
2023-03-24T00:18:58.181Z,4.45
2023-03-24T00:19:30.055Z,8.18
2023-03-24T00:20:07.699Z,4.53
2023-03-24T00:20:42.098Z,7.78
2023-03-24T00:21:15.704Z,4.57
2023-03-24T00:21:48.550Z,4.60
2023-03-24T00:22:21.180Z,3.70
2023-03-24T00:22:58.417Z,4.93
2023-03-24T00:23:33.644Z,4.15
2023-03-24T00:24:07.657Z,3.80
2023-03-24T00:24:40.726Z,4.03
2023-03-24T00:25:13.578Z,5.07
2023-03-24T00:25:45.725Z,5.18
2023-03-24T00:26:18.932Z,4.15
2023-03-24T00:26:51.814Z,4.47
2023-03-24T00:27:23.715Z,3.60
2023-03-24T00:27:57.164Z,4.72
2023-03-24T00:28:31.558Z,4.10
2023-03-24T00:29:05.013Z,4.65
2023-03-24T00:29:36.854Z,4.38
2023-03-24T00:30:11.496Z,4.20
2023-03-24T00:30:51.634Z,3.80
2023-03-24T00:31:24.454Z,4.07
2023-03-24T00:31:56.737Z,4.50
2023-03-24T00:32:30.305Z,5.05
2023-03-24T00:33:02.330Z,4.70
2023-03-24T00:33:35.236Z,4.93
2023-03-24T00:34:08.898Z,5.63
2023-03-24T00:34:43.204Z,6.22
2023-03-24T00:35:17.683Z,4.55
2023-03-24T00:35:50.758Z,9.73
2023-03-24T00:36:24.887Z,4.55
2023-03-24T00:36:56.858Z,5.18
2023-03-24T00:37:29.679Z,3.72
2023-03-24T00:38:01.535Z,4.35
2023-03-24T00:38:34.463Z,4.30
2023-03-24T00:39:07.332Z,3.92
2023-03-24T00:39:41.725Z,4.97
2023-03-24T00:40:16.480Z,4.72
2023-03-24T00:40:50.283Z,4.80
2023-03-24T00:41:26.617Z,9.02
2023-03-24T00:42:01.610Z,3.85
2023-03-24T00:42:33.770Z,3.92
2023-03-24T00:43:05.641Z,4.35
2023-03-24T00:43:38.783Z,5.07
2023-03-24T00:44:18.014Z,3.60
2023-03-24T00:44:49.960Z,4.05
2023-03-24T00:45:23.916Z,4.38
2023-03-24T00:45:58.796Z,4.70
2023-03-24T00:46:30.887Z,4.32
2023-03-24T00:47:03.892Z,4.13
2023-03-24T00:47:36.686Z,4.55
2023-03-24T00:48:11.127Z,4.75
2023-03-24T00:48:43.979Z,6.20
2023-03-24T00:49:16.947Z,4.20
2023-03-24T00:49:53.115Z,4.38
2023-03-24T00:50:27.581Z,3.90
2023-03-24T00:51:02.810Z,4.18
2023-03-24T00:51:36.994Z,5.63
2023-03-24T00:52:11.190Z,4.65
2023-03-24T00:52:44.256Z,4.65
2023-03-24T00:53:17.331Z,6.05
2023-03-24T00:53:49.208Z,4.32
2023-03-24T00:54:31.983Z,4.25
2023-03-24T00:55:06.295Z,4.32
2023-03-24T00:55:39.160Z,3.90
2023-03-24T00:56:11.637Z,4.68
2023-03-24T00:56:49.469Z,4.72
2023-03-24T00:57:22.771Z,6.35
2023-03-24T00:57:54.922Z,4.35
2023-03-24T00:58:29.770Z,6.70
2023-03-24T00:59:02.979Z,4.45
2023-03-24T00:59:42.091Z,3.28
2023-03-24T01:00:14.226Z,3.75
2023-03-24T01:00:48.442Z,3.80
2023-03-24T01:01:22.086Z,4.85
2023-03-24T01:01:54.036Z,4.10
2023-03-24T01:02:28.833Z,3.97
2023-03-24T01:03:03.209Z,6.70
2023-03-24T01:03:48.172Z,3.95
2023-03-24T01:04:20.708Z,4.43
2023-03-24T01:04:54.315Z,4.70
2023-03-24T01:05:29.562Z,4.60
2023-03-24T01:06:04.350Z,4.90
2023-03-24T01:06:38.019Z,4.40
2023-03-24T01:07:10.865Z,7.00
2023-03-24T01:07:43.247Z,4.78
2023-03-24T01:08:20.179Z,5.63
2023-03-24T01:08:53.860Z,4.20
2023-03-24T01:09:26.027Z,4.50
2023-03-24T01:09:59.161Z,4.25
2023-03-24T01:10:33.127Z,5.57
2023-03-24T01:11:06.295Z,4.50
2023-03-24T01:11:41.484Z,4.40
2023-03-24T01:12:14.878Z,5.97
2023-03-24T01:12:46.714Z,4.35
2023-03-24T01:13:20.816Z,5.15
2023-03-24T01:13:54.207Z,4.72
2023-03-24T01:14:26.060Z,5.00
2023-03-24T01:14:59.588Z,5.00
2023-03-24T01:15:33.544Z,4.82
2023-03-24T01:16:06.684Z,5.32
2023-03-24T01:16:40.087Z,5.15
2023-03-24T01:17:12.265Z,4.75
2023-03-24T01:17:47.007Z,4.78
2023-03-24T01:18:19.956Z,6.07
2023-03-24T01:18:52.872Z,3.88
2023-03-24T01:19:25.359Z,5.03
2023-03-24T01:19:57.937Z,4.70
2023-03-24T01:20:32.974Z,4.50
2023-03-24T01:21:05.103Z,4.35
2023-03-24T01:21:38.009Z,4.53
2023-03-24T01:22:10.884Z,4.15
2023-03-24T01:22:44.630Z,5.10
2023-03-24T01:23:21.240Z,4.35
2023-03-24T01:23:54.951Z,4.80
2023-03-24T01:24:26.809Z,4.90
2023-03-24T01:25:00.822Z,5.15
2023-03-24T01:25:35.837Z,4.97
2023-03-24T01:26:10.448Z,4.32
2023-03-24T01:26:43.327Z,4.47
2023-03-24T01:27:16.588Z,3.95
2023-03-24T01:27:50.142Z,4.60
2023-03-24T01:28:25.128Z,5.07
2023-03-24T01:28:57.762Z,4.10
2023-03-24T01:29:29.661Z,4.68
2023-03-24T01:30:02.974Z,5.05
2023-03-24T01:30:35.118Z,4.47
2023-03-24T01:31:08.827Z,4.72
2023-03-24T01:31:41.722Z,3.92
2023-03-24T01:32:13.718Z,4.20
2023-03-24T01:32:45.653Z,5.07
2023-03-24T01:33:18.794Z,4.90
2023-03-24T01:33:50.770Z,4.55
2023-03-24T01:34:22.637Z,4.88
2023-03-24T01:34:55.591Z,4.30
2023-03-24T01:35:29.351Z,3.33
2023-03-24T01:36:01.731Z,4.35
2023-03-24T01:36:34.646Z,4.63
2023-03-24T01:37:06.588Z,5.65
2023-03-24T01:37:38.580Z,4.82
2023-03-24T01:38:13.175Z,6.40
2023-03-24T01:38:45.092Z,4.68
2023-03-24T01:39:18.106Z,4.30
2023-03-24T01:39:50.478Z,5.15
2023-03-24T01:40:24.519Z,5.32
2023-03-24T01:40:57.359Z,3.65
2023-03-24T01:41:33.305Z,4.07
2023-03-24T01:42:05.307Z,4.70
2023-03-24T01:42:40.936Z,6.57
2023-03-24T01:43:18.930Z,4.78
2023-03-24T01:43:50.991Z,4.22
2023-03-24T01:44:29.416Z,4.10
2023-03-24T01:45:22.348Z,4.65
2023-03-24T01:46:13.835Z,5.57
2023-03-24T01:46:46.005Z,5.03
2023-03-24T01:47:18.455Z,4.00
2023-03-24T01:47:51.485Z,4.15
2023-03-24T01:48:28.481Z,4.43
2023-03-24T01:49:02.944Z,5.55
2023-03-24T01:49:40.496Z,3.50
2023-03-24T01:50:12.394Z,4.78
2023-03-24T01:50:58.554Z,4.32
2023-03-24T01:51:35.725Z,4.35
2023-03-24T01:52:12.045Z,3.63
2023-03-24T01:52:43.991Z,4.90
2023-03-24T01:53:17.026Z,4.50
2023-03-24T01:53:53.598Z,4.30
2023-03-24T01:54:30.882Z,4.80
2023-03-24T01:55:07.932Z,4.72
2023-03-24T01:55:40.639Z,5.22
2023-03-24T01:56:14.312Z,4.63
2023-03-24T01:56:50.507Z,4.00
2023-03-24T01:57:27.135Z,9.00
2023-03-24T01:58:03.806Z,4.15
2023-03-24T01:58:38.335Z,3.60
2023-03-24T01:59:13.516Z,4.45
2023-03-24T01:59:49.624Z,5.45
2023-03-24T02:00:22.075Z,6.72
2023-03-24T02:00:54.166Z,15.95
2023-03-24T02:01:29.711Z,11.50
2023-03-24T02:02:04.000Z,15.85
2023-03-24T02:02:36.796Z,11.63
2023-03-24T02:03:14.687Z,10.07
2023-03-24T02:03:47.906Z,7.38
2023-03-24T02:04:20.291Z,6.65
2023-03-24T02:04:54.844Z,5.93
2023-03-24T02:05:31.917Z,4.70
2023-03-24T02:06:05.719Z,4.70
2023-03-24T02:06:41.370Z,7.15
2023-03-24T02:07:20.146Z,4.90
2023-03-24T02:08:00.008Z,4.43
2023-03-24T02:08:36.626Z,4.85
2023-03-24T02:09:09.974Z,4.15
2023-03-24T02:09:42.820Z,4.82
2023-03-24T02:10:17.563Z,3.90
2023-03-24T02:10:50.832Z,4.95
2023-03-24T02:11:25.555Z,3.90
2023-03-24T02:11:57.885Z,4.22
2023-03-24T02:12:32.046Z,3.72
2023-03-24T02:13:06.317Z,4.57
2023-03-24T02:13:38.188Z,4.05
2023-03-24T02:14:13.285Z,5.65
2023-03-24T02:14:46.337Z,4.18
2023-03-24T02:15:19.719Z,3.55
2023-03-24T02:16:05.246Z,3.45
2023-03-24T02:16:56.802Z,3.22
2023-03-24T02:17:49.030Z,6.05
2023-03-24T02:18:29.265Z,4.32
2023-03-24T02:19:38.015Z,4.93
2023-03-24T02:20:31.748Z,4.13
2023-03-24T02:21:49.592Z,4.35
2023-03-24T02:22:46.589Z,3.72
2023-03-24T02:23:55.657Z,4.50
2023-03-24T02:25:03.074Z,4.10
2023-03-24T02:26:23.176Z,5.55
2023-03-24T02:27:04.724Z,4.35
2023-03-24T02:28:02.870Z,5.97
2023-03-24T02:28:45.037Z,3.63
2023-03-24T02:29:51.395Z,7.82
2023-03-24T02:31:14.000Z,3.72
2023-03-24T02:32:09.227Z,4.47
2023-03-24T02:33:14.025Z,4.65
2023-03-24T02:34:15.496Z,4.25
2023-03-24T02:35:13.756Z,3.92
2023-03-24T02:36:36.936Z,5.22
2023-03-24T02:37:30.323Z,3.90
2023-03-24T02:38:37.922Z,3.92
2023-03-24T02:39:47.027Z,4.40
2023-03-24T02:40:26.246Z,3.92
2023-03-24T02:41:05.943Z,4.97
2023-03-24T02:41:42.062Z,4.28
2023-03-24T02:42:26.067Z,4.20
2023-03-24T02:43:09.679Z,6.15
2023-03-24T02:43:50.024Z,5.30
2023-03-24T02:44:27.418Z,3.92
2023-03-24T02:45:13.489Z,5.57
2023-03-24T02:45:54.811Z,3.42
2023-03-24T02:46:35.956Z,4.72
2023-03-24T02:47:14.573Z,4.32
2023-03-24T02:47:54.661Z,3.88
2023-03-24T02:48:35.045Z,4.22
2023-03-24T02:49:21.543Z,3.92
2023-03-24T02:50:01.558Z,6.82
2023-03-24T02:50:40.723Z,3.90
2023-03-24T02:51:17.431Z,5.05
2023-03-24T02:51:57.223Z,4.00
2023-03-24T02:52:37.381Z,3.85
2023-03-24T02:53:15.346Z,3.97
2023-03-24T02:53:59.704Z,3.70
2023-03-24T02:54:39.386Z,4.78
2023-03-24T02:55:17.473Z,5.22
2023-03-24T02:55:55.526Z,4.40
2023-03-24T02:56:34.606Z,3.92
2023-03-24T02:57:11.027Z,4.20
2023-03-24T02:57:47.199Z,4.57
2023-03-24T02:58:26.274Z,5.20
2023-03-24T02:59:04.173Z,3.90
2023-03-24T02:59:41.929Z,3.75
2023-03-24T03:00:21.270Z,4.38
2023-03-24T03:00:59.342Z,4.22
2023-03-24T03:01:37.713Z,4.22
2023-03-24T03:02:14.071Z,3.58
2023-03-24T03:02:49.744Z,4.22
2023-03-24T03:03:27.924Z,4.40
2023-03-24T03:04:05.073Z,4.22
2023-03-24T03:04:41.754Z,11.07
2023-03-24T03:05:19.157Z,3.72
2023-03-24T03:05:58.493Z,9.35
2023-03-24T03:06:33.484Z,6.60
2023-03-24T03:07:09.863Z,4.75
2023-03-24T03:07:44.973Z,4.68
2023-03-24T03:08:21.032Z,5.60
2023-03-24T03:08:55.078Z,5.20
2023-03-24T03:09:29.891Z,4.53
2023-03-24T03:10:06.752Z,4.75
2023-03-24T03:10:41.478Z,4.32
2023-03-24T03:11:17.880Z,4.38
2023-03-24T03:11:52.996Z,4.97
2023-03-24T03:12:27.370Z,4.32
2023-03-24T03:13:05.869Z,3.78
2023-03-24T03:13:43.282Z,4.90
2023-03-24T03:14:19.892Z,3.78
2023-03-24T03:14:57.694Z,5.10
2023-03-24T03:15:34.492Z,4.15
2023-03-24T03:16:10.860Z,3.70
2023-03-24T03:16:47.835Z,4.40
2023-03-24T03:17:22.950Z,3.75
2023-03-24T03:17:59.837Z,4.20
2023-03-24T03:18:39.515Z,3.97
2023-03-24T03:19:18.020Z,4.13
2023-03-24T03:19:53.074Z,3.35
2023-03-24T03:20:30.897Z,4.32
2023-03-24T03:21:07.193Z,5.93
2023-03-24T03:21:42.373Z,5.15
2023-03-24T03:22:19.401Z,4.65
2023-03-24T03:22:56.639Z,4.03
2023-03-24T03:23:36.372Z,4.20
2023-03-24T03:24:12.464Z,6.10
2023-03-24T03:24:50.357Z,4.57
2023-03-24T03:25:26.007Z,3.88
2023-03-24T03:26:05.840Z,5.43
2023-03-24T03:26:41.631Z,4.47
2023-03-24T03:27:18.902Z,4.50
2023-03-24T03:27:53.647Z,5.25
2023-03-24T03:28:29.639Z,4.60
2023-03-24T03:29:06.619Z,6.18
2023-03-24T03:29:42.134Z,4.10
2023-03-24T03:30:19.346Z,4.72
2023-03-24T03:30:54.637Z,4.70
2023-03-24T03:31:31.746Z,4.32
2023-03-24T03:32:08.415Z,4.15
2023-03-24T03:32:44.881Z,4.07
2023-03-24T03:33:24.944Z,3.90
2023-03-24T03:34:04.054Z,3.88
2023-03-24T03:34:42.640Z,3.72
2023-03-24T03:35:20.513Z,5.50
2023-03-24T03:35:54.195Z,4.40
2023-03-24T03:36:30.985Z,3.75
2023-03-24T03:37:08.392Z,4.63
2023-03-24T03:37:47.347Z,5.25
2023-03-24T03:38:25.517Z,3.72
2023-03-24T03:39:03.974Z,4.20
2023-03-24T03:39:42.152Z,4.13
2023-03-24T03:40:19.500Z,4.25
2023-03-24T03:40:52.962Z,4.50
2023-03-24T03:41:25.941Z,6.05
2023-03-24T03:41:59.595Z,3.67
2023-03-24T03:42:31.641Z,4.28
2023-03-24T03:43:05.408Z,4.15
2023-03-24T03:43:37.860Z,3.90
2023-03-24T03:44:10.284Z,3.45
2023-03-24T03:44:43.982Z,3.80
2023-03-24T03:45:16.186Z,3.92
2023-03-24T03:45:48.419Z,4.40
2023-03-24T03:46:21.412Z,4.45
2023-03-24T03:46:53.590Z,3.70
2023-03-24T03:47:25.692Z,4.03
2023-03-24T03:47:58.638Z,4.00
2023-03-24T03:48:31.488Z,3.95
2023-03-24T03:49:03.795Z,4.57
2023-03-24T03:49:37.652Z,4.20
2023-03-24T03:50:10.673Z,4.57
2023-03-24T03:50:42.701Z,5.05
2023-03-24T03:51:18.298Z,4.32
2023-03-24T03:51:50.584Z,5.10
2023-03-24T03:52:22.822Z,4.07
2023-03-24T03:52:55.739Z,4.07
2023-03-24T03:53:34.839Z,4.30
2023-03-24T03:54:10.674Z,4.35
2023-03-24T03:54:44.591Z,5.40
2023-03-24T03:55:17.030Z,4.20
2023-03-24T03:55:49.062Z,6.53
2023-03-24T03:56:24.756Z,4.18
2023-03-24T03:56:57.541Z,4.50
2023-03-24T03:57:31.678Z,4.05
2023-03-24T03:58:06.002Z,6.15
2023-03-24T03:58:39.233Z,4.22
2023-03-24T03:59:25.093Z,4.95
2023-03-24T03:59:58.760Z,4.70
2023-03-24T04:00:31.132Z,4.10
2023-03-24T04:01:03.956Z,4.05
2023-03-24T04:01:41.878Z,3.55
2023-03-24T04:02:29.702Z,5.05
2023-03-24T04:03:17.578Z,6.10
2023-03-24T04:04:21.600Z,6.05
2023-03-24T04:05:07.726Z,4.35
2023-03-24T04:05:48.141Z,4.88
2023-03-24T04:06:30.804Z,3.40
2023-03-24T04:07:13.840Z,4.22
2023-03-24T04:08:05.247Z,4.10
2023-03-24T04:08:49.331Z,4.00
2023-03-24T04:09:36.300Z,3.92
2023-03-24T04:10:18.917Z,4.47
2023-03-24T04:11:28.226Z,3.30
2023-03-24T04:12:17.357Z,5.78
2023-03-24T04:13:10.223Z,5.18
2023-03-24T04:13:53.518Z,5.60
2023-03-24T04:14:54.173Z,3.75
2023-03-24T04:15:40.031Z,3.85
2023-03-24T04:16:21.009Z,4.30
2023-03-24T04:17:04.484Z,4.30
2023-03-24T04:17:50.695Z,4.70
2023-03-24T04:18:44.913Z,3.92
2023-03-24T04:19:32.060Z,4.50
2023-03-24T04:20:11.859Z,4.57
2023-03-24T04:20:48.599Z,3.97
2023-03-24T04:21:39.010Z,5.18
2023-03-24T04:22:26.370Z,4.55
2023-03-24T04:23:09.224Z,4.68
2023-03-24T04:23:54.215Z,4.95
2023-03-24T04:24:40.188Z,4.07
2023-03-24T04:25:18.090Z,4.18
2023-03-24T04:25:58.686Z,4.53
2023-03-24T04:26:41.376Z,4.80
2023-03-24T04:27:21.959Z,4.13
2023-03-24T04:28:01.042Z,5.47
2023-03-24T04:28:39.696Z,4.40
2023-03-24T04:29:17.813Z,3.55
2023-03-24T04:29:58.154Z,3.83
2023-03-24T04:30:37.704Z,4.72
2023-03-24T04:31:17.610Z,5.00
2023-03-24T04:31:54.583Z,4.25
2023-03-24T04:32:32.371Z,4.07
2023-03-24T04:33:09.738Z,4.45
2023-03-24T04:33:48.607Z,4.45
2023-03-24T04:34:25.847Z,3.80
2023-03-24T04:35:03.485Z,5.25
2023-03-24T04:35:40.564Z,4.78
2023-03-24T04:36:19.115Z,4.22
2023-03-24T04:36:55.701Z,5.50
2023-03-24T04:37:32.629Z,4.10
2023-03-24T04:38:08.672Z,6.22
2023-03-24T04:38:42.607Z,3.45
2023-03-24T04:39:19.163Z,3.55
2023-03-24T04:39:53.849Z,4.78
2023-03-24T04:40:27.049Z,4.45
2023-03-24T04:41:01.247Z,4.47
2023-03-24T04:41:33.733Z,4.15
2023-03-24T04:42:10.978Z,5.15
2023-03-24T04:42:46.297Z,4.72
2023-03-24T04:43:24.829Z,4.05
2023-03-24T04:43:57.922Z,5.47
2023-03-24T04:44:32.844Z,3.83
2023-03-24T04:45:08.594Z,3.95
2023-03-24T04:45:41.596Z,4.55
2023-03-24T04:46:17.966Z,4.28
2023-03-24T04:46:52.301Z,4.43
2023-03-24T04:47:27.921Z,5.07
2023-03-24T04:48:04.515Z,4.72
2023-03-24T04:48:37.513Z,4.43
2023-03-24T04:49:09.470Z,5.80
2023-03-24T04:49:41.307Z,5.20
2023-03-24T04:50:15.373Z,5.25
2023-03-24T04:50:54.945Z,4.35
2023-03-24T04:51:28.627Z,4.20
2023-03-24T04:52:01.434Z,4.57
2023-03-24T04:52:33.237Z,4.30
2023-03-24T04:53:07.252Z,7.25
2023-03-24T04:53:40.064Z,6.30
2023-03-24T04:54:12.082Z,4.88
2023-03-24T04:54:43.907Z,5.43
2023-03-24T04:55:35.712Z,4.65
2023-03-24T04:56:29.735Z,4.70
2023-03-24T04:57:03.005Z,5.10
2023-03-24T04:57:34.827Z,5.00
2023-03-24T04:58:06.766Z,4.93
2023-03-24T04:58:41.483Z,3.72
2023-03-24T04:59:13.573Z,4.25
2023-03-24T04:59:46.079Z,4.63
2023-03-24T05:00:19.060Z,4.07
2023-03-24T05:00:52.206Z,5.15
2023-03-24T05:01:25.806Z,4.47
2023-03-24T05:01:58.666Z,4.10
2023-03-24T05:02:30.575Z,5.18
2023-03-24T05:03:02.449Z,4.32
2023-03-24T05:03:37.779Z,3.72
2023-03-24T05:04:11.939Z,7.22
2023-03-24T05:04:43.806Z,4.57
2023-03-24T05:05:16.014Z,4.40
2023-03-24T05:05:50.964Z,4.22
2023-03-24T05:06:22.805Z,4.25
2023-03-24T05:06:55.007Z,4.30
2023-03-24T05:07:28.362Z,4.70
2023-03-24T05:08:00.234Z,4.90
2023-03-24T05:08:32.603Z,5.68
2023-03-24T05:09:05.491Z,4.57
2023-03-24T05:09:37.293Z,7.03
2023-03-24T05:10:09.935Z,4.82
2023-03-24T05:10:42.980Z,4.22
2023-03-24T05:11:14.803Z,6.70
2023-03-24T05:11:46.700Z,4.38
2023-03-24T05:12:19.483Z,4.22
2023-03-24T05:12:51.332Z,6.80
2023-03-24T05:13:23.207Z,5.30
2023-03-24T05:13:57.376Z,8.90
2023-03-24T05:14:29.187Z,4.72
2023-03-24T05:15:01.189Z,5.35
2023-03-24T05:15:34.124Z,6.65
2023-03-24T05:16:06.964Z,5.53
2023-03-24T05:16:38.824Z,5.05
2023-03-24T05:17:11.583Z,5.07
2023-03-24T05:17:43.654Z,4.60
2023-03-24T05:18:15.583Z,4.50
2023-03-24T05:18:48.465Z,5.30
2023-03-24T05:19:20.671Z,5.15
2023-03-24T05:19:52.538Z,7.15
2023-03-24T05:20:26.003Z,5.50
2023-03-24T05:20:57.843Z,4.53
2023-03-24T05:21:30.544Z,6.15
2023-03-24T05:22:04.053Z,5.50
2023-03-24T05:22:36.284Z,4.82
2023-03-24T05:23:08.097Z,4.78
2023-03-24T05:23:41.009Z,4.93
2023-03-24T05:24:12.826Z,7.28
2023-03-24T05:24:44.719Z,5.25
2023-03-24T05:25:18.037Z,5.15
2023-03-24T05:25:50.140Z,4.90
2023-03-24T05:26:22.966Z,4.63
2023-03-24T05:26:54.739Z,5.80
2023-03-24T05:27:26.590Z,4.30
2023-03-24T05:27:59.553Z,4.55
2023-03-24T05:28:31.392Z,5.47
2023-03-24T05:29:05.579Z,4.70
2023-03-24T05:29:37.395Z,4.65
2023-03-24T05:30:10.183Z,5.47
2023-03-24T05:30:43.013Z,5.10
2023-03-24T05:31:14.906Z,5.65
2023-03-24T05:31:46.900Z,4.85
2023-03-24T05:32:19.796Z,7.05
2023-03-24T05:32:51.724Z,4.90
2023-03-24T05:33:23.641Z,5.45
2023-03-24T05:33:56.583Z,5.70
2023-03-24T05:34:28.480Z,5.15
2023-03-24T05:35:00.328Z,5.47
2023-03-24T05:35:33.125Z,4.72
2023-03-24T05:36:05.580Z,5.25
2023-03-24T05:36:38.303Z,5.32
2023-03-24T05:37:12.934Z,5.05
2023-03-24T05:37:45.035Z,6.47
2023-03-24T05:38:16.861Z,6.05
2023-03-24T05:38:49.676Z,4.78
2023-03-24T05:39:21.484Z,5.70
2023-03-24T05:39:55.998Z,6.22
2023-03-24T05:40:28.866Z,4.72
2023-03-24T05:41:01.105Z,5.90
2023-03-24T05:41:32.920Z,4.85
2023-03-24T05:42:05.876Z,5.63
2023-03-24T05:42:37.794Z,4.35
2023-03-24T05:43:12.116Z,4.93
2023-03-24T05:43:44.881Z,5.68
2023-03-24T05:44:18.098Z,4.75
2023-03-24T05:44:49.938Z,4.28
2023-03-24T05:45:21.718Z,5.30
2023-03-24T05:45:56.119Z,4.32
2023-03-24T05:46:28.078Z,4.38
2023-03-24T05:46:59.957Z,4.07
2023-03-24T05:47:32.721Z,4.10
2023-03-24T05:48:05.097Z,4.15
2023-03-24T05:48:36.934Z,4.30
2023-03-24T05:49:09.736Z,4.10
2023-03-24T05:49:42.711Z,4.10
2023-03-24T05:50:14.543Z,3.60
2023-03-24T05:50:47.300Z,4.43
2023-03-24T05:51:19.089Z,4.20
2023-03-24T05:51:51.040Z,4.45
2023-03-24T05:52:24.249Z,3.70
2023-03-24T05:52:56.313Z,4.30
2023-03-24T05:53:28.143Z,7.50
2023-03-24T05:54:01.016Z,3.95
2023-03-24T05:54:34.032Z,3.90
2023-03-24T05:55:07.392Z,4.13
2023-03-24T05:55:41.616Z,4.53
2023-03-24T05:56:13.415Z,4.68
2023-03-24T05:56:46.221Z,3.95
2023-03-24T05:57:19.185Z,5.95
2023-03-24T05:57:51.156Z,4.72
2023-03-24T05:58:24.067Z,4.68
2023-03-24T05:58:55.854Z,4.45
2023-03-24T05:59:29.773Z,5.15
2023-03-24T06:00:05.598Z,4.50
2023-03-24T06:00:38.147Z,4.40
2023-03-24T06:01:18.298Z,4.90
2023-03-24T06:01:53.250Z,3.83
2023-03-24T06:02:25.374Z,5.38
2023-03-24T06:02:57.887Z,5.45
2023-03-24T06:03:34.189Z,4.72
2023-03-24T06:04:06.549Z,4.38
2023-03-24T06:04:38.597Z,4.47
2023-03-24T06:05:11.570Z,5.63
2023-03-24T06:05:45.714Z,4.15
2023-03-24T06:06:18.889Z,5.38
2023-03-24T06:06:50.807Z,4.00
2023-03-24T06:07:26.344Z,4.45
2023-03-24T06:08:01.257Z,5.05
2023-03-24T06:08:33.897Z,5.65
2023-03-24T06:09:05.678Z,4.78
2023-03-24T06:09:42.208Z,5.18
2023-03-24T06:10:14.518Z,5.63
2023-03-24T06:10:48.373Z,6.22
2023-03-24T06:11:20.755Z,5.68
2023-03-24T06:11:52.568Z,4.70
2023-03-24T06:12:25.709Z,4.78
2023-03-24T06:12:58.045Z,4.82
2023-03-24T06:13:31.089Z,4.60
2023-03-24T06:14:02.958Z,4.78
2023-03-24T06:14:36.439Z,4.80
2023-03-24T06:15:10.687Z,4.47
2023-03-24T06:15:42.860Z,4.75
2023-03-24T06:16:15.078Z,5.55
2023-03-24T06:16:49.857Z,4.93
2023-03-24T06:17:22.053Z,5.35
2023-03-24T06:17:55.828Z,6.82
2023-03-24T06:18:28.026Z,5.30
2023-03-24T06:19:00.682Z,8.20
2023-03-24T06:19:34.660Z,5.65
2023-03-24T06:20:13.684Z,6.32
2023-03-24T06:20:45.663Z,5.47
2023-03-24T06:21:18.803Z,4.93
2023-03-24T06:21:50.784Z,5.82
2023-03-24T06:22:22.615Z,5.40
2023-03-24T06:22:59.013Z,10.25
2023-03-24T06:23:30.854Z,5.13
2023-03-24T06:24:04.260Z,4.70
2023-03-24T06:24:36.254Z,5.95
2023-03-24T06:25:09.998Z,5.93
2023-03-24T06:25:44.392Z,5.80
2023-03-24T06:26:19.078Z,5.82
2023-03-24T06:26:50.896Z,5.50
2023-03-24T06:27:25.943Z,8.93
2023-03-24T06:28:03.828Z,9.43
2023-03-24T06:28:35.667Z,7.60
2023-03-24T06:29:08.551Z,7.88
2023-03-24T06:29:42.366Z,7.30
2023-03-24T06:30:16.275Z,8.20
2023-03-24T06:30:49.546Z,10.80
2023-03-24T06:31:21.870Z,8.95
2023-03-24T06:31:53.701Z,9.32
2023-03-24T06:32:27.147Z,6.93
2023-03-24T06:32:59.088Z,8.32
2023-03-24T06:33:30.908Z,6.40
2023-03-24T06:34:03.687Z,6.47
2023-03-24T06:34:35.589Z,7.03
2023-03-24T06:35:08.995Z,14.80
2023-03-24T06:35:40.959Z,6.88
2023-03-24T06:36:14.125Z,6.35
2023-03-24T06:36:45.935Z,7.95
2023-03-24T06:37:17.853Z,7.70
2023-03-24T06:37:50.603Z,7.60
2023-03-24T06:38:22.570Z,6.15
2023-03-24T06:38:54.546Z,7.43
2023-03-24T06:39:27.652Z,6.38
2023-03-24T06:40:00.224Z,6.13
2023-03-24T06:40:32.062Z,5.28
2023-03-24T06:41:05.887Z,6.47
2023-03-24T06:41:37.698Z,6.03
2023-03-24T06:42:10.482Z,8.07
2023-03-24T06:42:42.586Z,7.75
2023-03-24T06:43:14.486Z,8.23
2023-03-24T06:43:47.282Z,6.35
2023-03-24T06:44:19.120Z,6.75
2023-03-24T06:44:52.302Z,7.03
2023-03-24T06:45:25.374Z,6.93
2023-03-24T06:45:57.387Z,6.40
2023-03-24T06:46:29.248Z,6.05
2023-03-24T06:47:02.007Z,5.72
2023-03-24T06:47:33.905Z,6.43
2023-03-24T06:48:07.391Z,6.43
2023-03-24T06:48:39.584Z,7.47
2023-03-24T06:49:11.639Z,6.70
2023-03-24T06:49:44.414Z,6.10
2023-03-24T06:50:16.304Z,7.28
2023-03-24T06:50:48.103Z,7.72
2023-03-24T06:51:20.927Z,6.55
2023-03-24T06:51:52.817Z,6.72
2023-03-24T06:52:24.762Z,5.93
2023-03-24T06:52:58.014Z,7.13
2023-03-24T06:53:30.293Z,6.75
2023-03-24T06:54:03.148Z,10.40
2023-03-24T06:54:35.978Z,6.30
2023-03-24T06:55:08.412Z,7.10
2023-03-24T06:55:41.422Z,7.60
2023-03-24T06:56:16.943Z,7.85
2023-03-24T06:56:48.983Z,7.95
2023-03-24T06:57:22.151Z,8.50
2023-03-24T06:57:54.002Z,7.28
2023-03-24T06:58:25.921Z,7.25
2023-03-24T06:58:58.875Z,7.43
2023-03-24T06:59:30.678Z,7.18
2023-03-24T07:00:05.663Z,8.43
2023-03-24T07:00:38.451Z,7.10
2023-03-24T07:01:11.285Z,7.78
2023-03-24T07:01:43.176Z,7.80
2023-03-24T07:02:16.917Z,8.40
2023-03-24T07:02:48.855Z,8.05
2023-03-24T07:03:23.535Z,6.95
2023-03-24T07:03:56.539Z,9.10
2023-03-24T07:04:28.939Z,8.25
2023-03-24T07:05:05.999Z,8.10
2023-03-24T07:05:38.447Z,8.20
2023-03-24T07:06:10.475Z,7.32
2023-03-24T07:06:58.639Z,8.07
2023-03-24T07:08:48.437Z,7.85
2023-03-24T07:09:21.262Z,7.40
2023-03-24T07:09:53.081Z,11.63
2023-03-24T07:10:24.947Z,7.70
2023-03-24T07:10:57.771Z,8.13
2023-03-24T07:11:29.614Z,7.03
2023-03-24T07:12:03.454Z,6.82
2023-03-24T07:12:36.508Z,9.38
2023-03-24T07:13:08.924Z,7.07
2023-03-24T07:13:41.114Z,7.32
2023-03-24T07:14:13.923Z,7.72
2023-03-24T07:14:45.715Z,8.23
2023-03-24T07:15:19.883Z,8.63
2023-03-24T07:15:51.878Z,8.45
2023-03-24T07:16:23.841Z,9.93
2023-03-24T07:16:56.708Z,8.50
2023-03-24T07:17:28.603Z,8.15
2023-03-24T07:18:00.852Z,10.57
2023-03-24T07:18:33.712Z,8.68
2023-03-24T07:19:05.627Z,8.93
2023-03-24T07:19:38.460Z,9.50
2023-03-24T07:20:11.006Z,8.70
2023-03-24T07:20:43.142Z,9.15
2023-03-24T07:21:16.135Z,10.15
2023-03-24T07:21:50.037Z,9.25
2023-03-24T07:22:21.973Z,6.95
2023-03-24T07:22:57.122Z,7.05
2023-03-24T07:23:30.244Z,7.25
2023-03-24T07:24:02.236Z,7.25
2023-03-24T07:24:35.888Z,9.40
2023-03-24T07:25:08.715Z,7.20
2023-03-24T07:25:41.831Z,7.72
2023-03-24T07:26:13.718Z,7.88
2023-03-24T07:26:45.639Z,7.63
2023-03-24T07:27:18.902Z,7.90
2023-03-24T07:27:53.545Z,8.18
2023-03-24T07:28:27.573Z,7.72
2023-03-24T07:28:59.415Z,7.57
2023-03-24T07:29:31.277Z,7.38
2023-03-24T07:30:04.685Z,8.50
2023-03-24T07:30:40.860Z,7.82
2023-03-24T07:31:13.160Z,8.65
2023-03-24T07:31:48.700Z,7.60
2023-03-24T07:32:20.732Z,7.20
2023-03-24T07:32:55.581Z,8.20
2023-03-24T07:33:28.610Z,9.10
2023-03-24T07:34:01.981Z,8.60
2023-03-24T07:34:36.770Z,8.40
2023-03-24T07:35:10.688Z,9.07
2023-03-24T07:35:43.365Z,7.65
2023-03-24T07:36:16.777Z,7.80
2023-03-24T07:36:48.620Z,7.75
2023-03-24T07:37:20.520Z,8.95
2023-03-24T07:37:53.315Z,8.27
2023-03-24T07:38:25.336Z,8.55
2023-03-24T07:38:57.333Z,8.60
2023-03-24T07:39:31.055Z,8.60
2023-03-24T07:40:05.582Z,12.73
2023-03-24T07:40:38.604Z,10.95
2023-03-24T07:41:10.465Z,10.52
2023-03-24T07:41:42.314Z,8.68
2023-03-24T07:42:15.217Z,10.02
2023-03-24T07:42:47.253Z,11.45
2023-03-24T07:43:19.083Z,8.98
2023-03-24T07:43:51.928Z,9.27
2023-03-24T07:44:23.795Z,8.57
2023-03-24T07:44:56.042Z,9.38
2023-03-24T07:45:29.205Z,10.00
2023-03-24T07:46:02.523Z,8.88
2023-03-24T07:46:34.658Z,8.95
2023-03-24T07:47:07.534Z,13.93
2023-03-24T07:47:39.655Z,11.13
2023-03-24T07:48:12.565Z,12.30
2023-03-24T07:48:44.502Z,10.45
2023-03-24T07:49:19.687Z,10.60
2023-03-24T07:49:52.989Z,9.85
2023-03-24T07:50:24.768Z,10.38
2023-03-24T07:50:57.598Z,8.77
2023-03-24T07:51:29.709Z,8.85
2023-03-24T07:52:06.227Z,8.73
2023-03-24T07:52:40.076Z,8.32
2023-03-24T07:53:11.987Z,9.90